SANT/TUC METAR and TAF weather

Enter ICAO airport designator
Station Type Date Time Source
SANT METAR 2019/06/17 07:00 UTC NOAA

SANT 170700Z 00000KT 9999 BKN040 SCT100 09/07 Q1022


Station Type Date Time Source
SANT Decoded METAR 2019/06/17 07:00 UTC NOAA

Tucuman Aerodrome, Argentina (SANT) 26-51S 065-06W 450M
Jun 17, 2019 - 03:00 AM EDT / 2019.06.17 0700 UTC
Wind: Calm:0
Visibility: greater than 7 mile(s):0
Sky conditions: mostly cloudy
Temperature: 48 F (9 C)
Dew Point: 44 F (7 C)
Relative Humidity: 87%
Pressure (altimeter): 30.18 in. Hg (1022 hPa)
ob: SANT 170700Z 00000KT 9999 BKN040 SCT100 09/07 Q1022
cycle: 7

Station Type Date Time Source
SANT TAF 2019/06/17 06:10 UTC NOAA

TAF SANT 170500Z 1706/1806 VRB03KT 9999 SCT015 OVC030 TX14/1718Z TN05/1712Z
BECMG 1707/1709 OVC010
BECMG 1712/1714 BKN015

Example: see airport list